createdAt,value
2023-02-11T00:00:30.870Z,60.52
2023-02-11T00:06:01.360Z,60.47
2023-02-11T00:11:09.065Z,60.30
2023-02-11T00:16:17.551Z,60.66
2023-02-11T00:21:25.571Z,60.59
2023-02-11T00:26:33.450Z,60.43
2023-02-11T00:31:41.068Z,60.64
2023-02-11T00:36:49.855Z,60.42
2023-02-11T00:41:57.024Z,60.51
2023-02-11T00:47:04.289Z,60.45
2023-02-11T00:52:11.624Z,60.50
2023-02-11T00:57:18.966Z,60.55
2023-02-11T01:02:26.794Z,60.52
2023-02-11T01:07:34.122Z,60.52
2023-02-11T01:12:41.814Z,60.46
2023-02-11T01:17:49.063Z,60.41
2023-02-11T01:22:56.384Z,60.40
2023-02-11T01:28:03.780Z,60.34
2023-02-11T01:33:11.158Z,60.47
2023-02-11T01:38:19.235Z,60.42
2023-02-11T01:43:27.165Z,60.55
2023-02-11T01:48:36.292Z,60.55
2023-02-11T01:54:01.633Z,60.56
2023-02-11T01:59:13.706Z,60.52
2023-02-11T02:04:21.726Z,60.52
2023-02-11T02:09:30.546Z,60.52
2023-02-11T02:14:39.562Z,60.34
2023-02-11T02:19:57.374Z,60.64
2023-02-11T02:25:14.787Z,60.27
2023-02-11T02:30:39.715Z,60.48
2023-02-11T02:35:49.293Z,60.58
2023-02-11T02:41:00.248Z,60.62
2023-02-11T02:46:17.601Z,60.49
2023-02-11T02:51:32.961Z,60.39
2023-02-11T02:56:44.282Z,60.55
2023-02-11T03:01:57.169Z,60.52
2023-02-11T03:07:05.822Z,60.39
2023-02-11T03:12:15.256Z,60.47
2023-02-11T03:17:23.354Z,60.41
2023-02-11T03:22:34.705Z,60.38
2023-02-11T03:27:45.185Z,60.46
2023-02-11T03:32:53.992Z,60.55
2023-02-11T03:38:03.539Z,60.51
2023-02-11T03:43:12.112Z,60.64
2023-02-11T03:48:22.228Z,60.59
2023-02-11T03:53:29.441Z,60.43
2023-02-11T03:58:36.919Z,60.43
2023-02-11T04:03:44.336Z,60.67
2023-02-11T04:08:51.565Z,60.51
2023-02-11T04:13:58.890Z,60.72
2023-02-11T04:19:06.450Z,60.54
2023-02-11T04:24:13.771Z,60.58
2023-02-11T04:29:21.262Z,60.39
2023-02-11T04:34:28.672Z,60.56
2023-02-11T04:39:36.223Z,60.66
2023-02-11T04:44:43.970Z,60.26
2023-02-11T04:49:51.377Z,60.38
2023-02-11T04:54:58.447Z,60.39
2023-02-11T05:00:06.343Z,60.72
2023-02-11T05:05:14.070Z,60.59
2023-02-11T05:10:21.709Z,60.50
2023-02-11T05:15:29.225Z,60.37
2023-02-11T05:20:36.483Z,60.52
2023-02-11T05:25:43.857Z,60.63
2023-02-11T05:30:51.195Z,60.84
2023-02-11T05:36:01.923Z,60.56
2023-02-11T05:41:09.291Z,60.44
2023-02-11T05:46:16.572Z,60.64
2023-02-11T05:51:25.642Z,60.41
2023-02-11T05:56:32.808Z,60.67
2023-02-11T06:01:40.103Z,60.78
2023-02-11T06:06:47.226Z,60.67
2023-02-11T06:11:54.523Z,60.60
2023-02-11T06:17:02.080Z,60.52
2023-02-11T06:22:09.202Z,60.80
2023-02-11T06:27:16.535Z,60.65
2023-02-11T06:32:42.843Z,60.81
2023-02-11T06:37:51.315Z,60.48
2023-02-11T06:42:58.524Z,60.59
2023-02-11T06:48:05.927Z,60.76
2023-02-11T06:53:13.260Z,60.61
2023-02-11T06:58:20.570Z,60.53
2023-02-11T07:03:28.175Z,60.82
2023-02-11T07:08:35.643Z,60.79
2023-02-11T07:13:42.960Z,60.89
2023-02-11T07:18:50.442Z,60.50
2023-02-11T07:23:57.641Z,60.75
2023-02-11T07:29:05.038Z,60.55
2023-02-11T07:34:13.393Z,60.89
2023-02-11T07:39:23.027Z,60.75
2023-02-11T07:44:30.532Z,60.51
2023-02-11T07:49:37.843Z,60.82
2023-02-11T07:54:45.318Z,60.79
2023-02-11T07:59:52.462Z,60.63
2023-02-11T08:04:59.461Z,60.67
2023-02-11T08:10:06.836Z,60.84
2023-02-11T08:15:14.550Z,60.58
2023-02-11T08:20:22.249Z,60.52
2023-02-11T08:25:29.797Z,60.93
2023-02-11T08:30:37.150Z,60.58
2023-02-11T08:35:44.333Z,61.00
2023-02-11T08:40:51.859Z,60.64
2023-02-11T08:46:01.920Z,60.62
2023-02-11T08:51:10.555Z,60.71
2023-02-11T08:56:18.088Z,60.74
2023-02-11T09:01:26.315Z,60.74
2023-02-11T09:06:33.744Z,60.63
2023-02-11T09:11:41.262Z,60.55
2023-02-11T09:16:48.757Z,60.91
2023-02-11T09:21:56.011Z,60.75
2023-02-11T09:27:03.240Z,60.47
2023-02-11T09:32:10.535Z,60.40
2023-02-11T09:37:17.836Z,60.63
2023-02-11T09:42:39.944Z,60.47
2023-02-11T09:47:51.199Z,60.40
2023-02-11T09:53:01.656Z,60.44
2023-02-11T09:58:13.723Z,60.67
2023-02-11T10:03:39.693Z,60.58
2023-02-11T10:08:53.854Z,60.48
2023-02-11T10:14:07.160Z,60.70
2023-02-11T10:19:28.641Z,60.54
2023-02-11T10:24:36.209Z,60.89
2023-02-11T10:29:46.031Z,60.43
2023-02-11T10:34:55.128Z,60.67
2023-02-11T10:40:02.407Z,60.36
2023-02-11T10:45:18.149Z,60.70
2023-02-11T10:50:28.408Z,60.67
2023-02-11T10:55:35.968Z,60.40
2023-02-11T11:00:44.487Z,60.73
2023-02-11T11:05:53.194Z,60.48
2023-02-11T11:11:06.323Z,60.45
2023-02-11T11:16:24.735Z,60.64
2023-02-11T11:21:35.279Z,60.63
2023-02-11T11:26:46.620Z,60.51
2023-02-11T11:31:57.683Z,60.53
2023-02-11T11:37:13.080Z,60.34
2023-02-11T11:42:26.834Z,60.40
2023-02-11T11:47:38.035Z,60.80
2023-02-11T11:52:48.299Z,60.23
2023-02-11T11:57:55.861Z,60.52
2023-02-11T12:03:21.365Z,60.69
2023-02-11T12:08:35.269Z,60.72
2023-02-11T12:13:51.729Z,60.56
2023-02-11T12:19:18.227Z,60.56
2023-02-11T12:24:35.900Z,60.54
2023-02-11T12:29:53.811Z,60.51
2023-02-11T12:35:18.154Z,60.59
2023-02-11T12:40:31.636Z,60.73
2023-02-11T12:45:52.486Z,60.52
2023-02-11T12:51:03.813Z,60.50
2023-02-11T12:56:14.643Z,60.55
2023-02-11T13:01:25.166Z,60.48
2023-02-11T13:06:36.472Z,60.78
2023-02-11T13:11:52.454Z,60.54
2023-02-11T13:17:00.540Z,60.46
2023-02-11T13:22:15.135Z,60.56
2023-02-11T13:27:27.693Z,60.56
2023-02-11T13:32:48.196Z,60.34
2023-02-11T13:37:55.991Z,60.48
2023-02-11T13:43:04.605Z,60.66
2023-02-11T13:48:19.962Z,60.48
2023-02-11T13:53:28.132Z,60.28
2023-02-11T13:58:40.326Z,60.55
2023-02-11T14:04:25.370Z,60.80
2023-02-11T14:09:42.952Z,60.25
2023-02-11T14:15:18.836Z,60.53
2023-02-11T14:20:37.412Z,60.27
2023-02-11T14:25:45.556Z,60.45
2023-02-11T14:30:59.016Z,60.11
2023-02-11T14:36:10.150Z,60.17
2023-02-11T14:41:21.461Z,60.05
2023-02-11T14:46:30.572Z,60.25
2023-02-11T14:51:40.493Z,60.39
2023-02-11T14:56:48.429Z,60.28
2023-02-11T15:01:56.183Z,60.20
2023-02-11T15:07:06.590Z,60.41
2023-02-11T15:12:18.321Z,60.33
2023-02-11T15:17:26.697Z,60.42
2023-02-11T15:22:37.502Z,60.39
2023-02-11T15:27:45.553Z,60.65
2023-02-11T15:32:58.753Z,60.38
2023-02-11T15:38:06.480Z,60.17
2023-02-11T15:43:13.579Z,60.03
2023-02-11T15:48:22.033Z,59.61
2023-02-11T15:53:31.750Z,59.80
2023-02-11T15:58:42.599Z,59.65
2023-02-11T16:03:51.981Z,59.69
2023-02-11T16:09:06.266Z,59.61
2023-02-11T16:14:24.549Z,59.56
2023-02-11T16:19:32.216Z,59.26
2023-02-11T16:24:40.337Z,59.30
2023-02-11T16:29:49.392Z,59.40
2023-02-11T16:34:58.295Z,59.19
2023-02-11T16:40:05.704Z,59.10
2023-02-11T16:45:13.643Z,58.56
2023-02-11T16:50:23.470Z,58.79
2023-02-11T16:55:32.673Z,58.83
2023-02-11T17:00:40.561Z,58.61
2023-02-11T17:05:55.412Z,58.79
2023-02-11T17:11:03.893Z,58.82
2023-02-11T17:16:14.982Z,59.11
2023-02-11T17:21:22.430Z,58.99
2023-02-11T17:26:29.735Z,58.98
2023-02-11T17:31:37.615Z,58.96
2023-02-11T17:36:44.955Z,59.30
2023-02-11T17:41:52.492Z,59.16
2023-02-11T17:47:00.298Z,59.30
2023-02-11T17:52:07.706Z,59.29
2023-02-11T17:57:14.647Z,59.24
2023-02-11T18:02:21.915Z,59.32
2023-02-11T18:07:30.406Z,59.50
2023-02-11T18:12:37.925Z,59.36
2023-02-11T18:17:45.661Z,59.41
2023-02-11T18:22:53.269Z,59.50
2023-02-11T18:28:00.695Z,59.40
2023-02-11T18:33:11.869Z,59.54
2023-02-11T18:38:19.730Z,59.48
2023-02-11T18:43:32.252Z,59.62
2023-02-11T18:48:39.884Z,59.39
2023-02-11T18:53:47.862Z,59.58
2023-02-11T18:58:56.614Z,59.65
2023-02-11T19:04:04.946Z,59.65
2023-02-11T19:09:12.942Z,59.92
2023-02-11T19:14:22.482Z,59.53
2023-02-11T19:19:30.703Z,59.71
2023-02-11T19:24:37.891Z,59.41
2023-02-11T19:29:45.720Z,59.71
2023-02-11T19:34:53.670Z,59.65
2023-02-11T19:40:01.219Z,59.68
2023-02-11T19:45:09.199Z,59.72
2023-02-11T19:50:16.605Z,59.87
2023-02-11T19:55:23.700Z,60.10
2023-02-11T20:00:30.779Z,60.00
2023-02-11T20:05:42.879Z,59.93
2023-02-11T20:10:50.099Z,60.00
2023-02-11T20:15:57.777Z,59.97
2023-02-11T20:21:10.009Z,59.93
2023-02-11T20:26:17.985Z,60.11
2023-02-11T20:31:25.598Z,60.39
2023-02-11T20:36:34.588Z,59.99
2023-02-11T20:41:41.850Z,59.95
2023-02-11T20:46:49.699Z,60.42
2023-02-11T20:51:58.840Z,60.29
2023-02-11T20:57:07.647Z,60.40
2023-02-11T21:02:15.144Z,60.27
2023-02-11T21:07:22.527Z,60.63
2023-02-11T21:12:30.096Z,60.45
2023-02-11T21:17:37.836Z,60.45
2023-02-11T21:22:45.418Z,60.46
2023-02-11T21:27:52.731Z,60.56
2023-02-11T21:33:01.483Z,60.68
2023-02-11T21:38:09.101Z,60.69
2023-02-11T21:43:16.773Z,60.72
2023-02-11T21:48:24.364Z,61.11
2023-02-11T21:53:31.352Z,60.85
2023-02-11T21:58:38.576Z,60.83
2023-02-11T22:03:45.794Z,60.93
2023-02-11T22:08:53.144Z,61.02
2023-02-11T22:14:00.255Z,60.82
2023-02-11T22:19:07.969Z,61.12
2023-02-11T22:24:15.236Z,60.85
2023-02-11T22:29:22.712Z,61.00
2023-02-11T22:34:30.290Z,60.96
2023-02-11T22:39:37.527Z,61.17
2023-02-11T22:44:44.758Z,60.99
2023-02-11T22:49:52.323Z,61.14
2023-02-11T22:55:00.884Z,61.01
2023-02-11T23:00:10.363Z,61.01
2023-02-11T23:05:17.844Z,60.75
2023-02-11T23:10:25.190Z,61.16
2023-02-11T23:15:32.647Z,60.89
2023-02-11T23:20:41.556Z,60.94
2023-02-11T23:25:49.027Z,61.03
2023-02-11T23:30:56.959Z,61.06
2023-02-11T23:36:04.706Z,60.94
2023-02-11T23:41:12.173Z,60.90
2023-02-11T23:46:19.580Z,60.91
2023-02-11T23:51:26.689Z,60.85
2023-02-11T23:56:34.020Z,61.04
